Data for 12/17/2013

Time Sea-Level Adjusted Pressure Absolute Pressure Temperature Relative Humidity Dew Point   
(mb) (inHg) (mb) (inHg) (C) (F) (%) (C) (F)
00:05 1026 30.3 855 25.25 2.7 36.8 47 -7.4 18.7
00:10 1026 30.3 855 25.25 2.7 36.9 48 -7.3 18.8
00:15 1026 30.3 855 25.25 2.7 36.9 46 -7.8 18
00:20 1026 30.3 855 25.25 2.9 37.3 46 -7.6 18.4
00:25 1026 30.3 855 25.25 2.9 37.3 47 -7.2 19
00:30 1026 30.3 855 25.25 3 37.3 45 -8 17.7
00:35 1026 30.3 855 25.25 3 37.4 45 -7.9 17.9
00:40 1026 30.3 855 25.25 3 37.4 44 -8.1 17.4
00:45 1026 30.3 855 25.25 3.2 37.7 43 -8.3 17
00:50 1026 30.3 855 25.25 3.1 37.6 46 -7.3 18.8
00:55 1026 30.3 855 25.25 2.8 37 47 -7.6 18.4
01:00 1026 30.3 855 25.25 2.5 36.6 45 -8.2 17.2
01:05 1026 30.3 855 25.25 3 37.5 43 -8.3 17
01:10 1026 30.3 855 25.25 3.3 37.9 43 -8.2 17.2
01:15 1026 30.3 855 25.25 3.2 37.8 42 -8.4 16.9
01:20 1026 30.3 855 25.25 3.4 38.1 40 -9 15.9
01:25 1026 30.3 855 25.25 3.8 38.9 41 -8.3 17.1
01:30 1026 30.3 855 25.25 3.6 38.4 40 -8.8 16.1
01:35 1026 30.3 855 25.25 3.7 38.7 41 -8.3 17
01:40 1026 30.3 855 25.25 3.6 38.5 42 -8.3 17.1
01:45 1026 30.3 855 25.25 3 37.4 44 -8 17.6
01:50 1026 30.3 855 25.25 2.4 36.3 47 -7.9 17.8
01:55 1026 30.3 855 25.25 1.8 35.2 48 -8.1 17.5
02:00 1026 30.3 855 25.25 1.4 34.5 49 -8.2 17.2
02:05 1026 30.3 855 25.25 1.3 34.3 51 -7.9 17.9
02:10 1026 30.3 855 25.25 1 33.7 51 -8 17.5
02:15 1026 30.3 855 25.25 1 33.7 50 -8.3 17
02:20 1025 30.27 855 25.25 1.3 34.3 48 -8.6 16.5
02:25 1025 30.27 855 25.25 1.5 34.7 48 -8.4 16.9
02:30 1025 30.27 855 25.25 1.2 34.1 47 -8.8 16.1
02:35 1025 30.27 854 25.22 1.1 34 50 -8.3 17.1
02:40 1025 30.27 854 25.22 0.4 32.7 51 -8.7 16.3
02:45 1025 30.27 854 25.22 1.1 34 47 -8.9 16
02:50 1025 30.27 855 25.25 1.4 34.5 47 -8.7 16.4
02:55 1025 30.27 855 25.25 1.2 34.2 50 -8.1 17.3
03:00 1025 30.27 855 25.25 1.1 34 48 -8.8 16.2
03:05 1026 30.3 855 25.25 1.1 34 48 -8.6 16.5
03:10 1025 30.27 855 25.25 0.9 33.7 50 -8.4 16.8
03:15 1025 30.27 855 25.25 0.6 33 49 -8.8 16.1
03:20 1025 30.27 855 25.25 0.8 33.4 49 -8.8 16.2
03:25 1026 30.3 855 25.25 0.5 33 50 -8.7 16.3
03:30 1026 30.3 855 25.25 0.4 32.6 52 -8.4 16.8
03:35 1026 30.3 855 25.25 -0.2 31.7 54 -8.5 16.7
03:40 1026 30.3 855 25.25 -0.4 31.3 55 -8.4 16.8
03:45 1025 30.27 855 25.25 -0.4 31.3 53 -8.8 16.2
03:50 1025 30.27 855 25.25 -0.6 30.9 57 -8.1 17.3
03:55 1025 30.27 855 25.25 -0.8 30.5 55 -8.7 16.4
04:00 1025 30.27 855 25.25 -0.8 30.5 56 -8.5 16.7
04:05 1025 30.27 855 25.25 -1 30.3 56 -8.6 16.4
04:10 1025 30.27 855 25.25 -1.3 29.6 58 -8.6 16.5
04:15 1025 30.27 855 25.25 -0.9 30.4 54 -9 15.7
04:20 1025 30.27 855 25.25 -0.3 31.5 53 -8.7 16.4
04:25 1025 30.27 854 25.22 -0.9 30.4 56 -8.5 16.6
04:30 1025 30.27 854 25.22 -1.2 29.8 57 -8.7 16.4
04:35 1025 30.27 854 25.22 -1.1 30 57 -8.6 16.5
04:40 1025 30.27 854 25.22 -1.5 29.3 59 -8.4 16.8
04:45 1025 30.27 854 25.22 -1.7 29 58 -8.8 16.1
04:50 1025 30.27 854 25.22 -0.9 30.4 55 -8.8 16.2
04:55 1025 30.27 854 25.22 -0.6 30.9 55 -8.6 16.5
05:00 1025 30.27 854 25.22 -0.4 31.2 54 -8.7 16.4
05:05 1025 30.27 854 25.22 -0.2 31.6 53 -8.6 16.5
05:10 1025 30.27 854 25.22 -0.2 31.7 54 -8.5 16.7
05:15 1025 30.27 854 25.22 -0.1 31.9 53 -8.5 16.6
05:20 1025 30.27 854 25.22 0.7 33.2 50 -8.7 16.3
05:25 1025 30.27 854 25.22 0.9 33.6 49 -8.6 16.6
05:30 1025 30.27 854 25.22 1 33.8 49 -8.6 16.6
05:35 1025 30.27 854 25.22 1.2 34.1 49 -8.4 16.9
05:40 1025 30.27 854 25.22 1 33.8 50 -8.4 16.9
05:45 1025 30.27 854 25.22 1 33.8 49 -8.5 16.7
05:50 1025 30.27 854 25.22 1.2 34.1 49 -8.4 16.8
05:55 1025 30.27 854 25.22 1.4 34.5 48 -8.5 16.6
06:00 1025 30.27 854 25.22 1 33.8 51 -8.1 17.5
06:05 1025 30.27 854 25.22 0.6 33 51 -8.5 16.7
06:10 1025 30.27 854 25.22 0.4 32.8 54 -7.9 17.7
06:15 1025 30.27 854 25.22 0.2 32.3 53 -8.4 16.9
06:20 1024 30.24 854 25.22 0.4 32.7 52 -8.3 17
06:25 1024 30.24 854 25.22 0.3 32.6 52 -8.4 16.9
06:30 1024 30.24 853 25.19 0.4 32.7 52 -8.4 17
06:35 1024 30.24 853 25.19 0.3 32.5 54 -8.1 17.5
06:40 1024 30.24 853 25.19 -0.3 31.5 56 -8 17.5
06:45 1024 30.24 853 25.19 -0.6 30.9 56 -8.3 17.1
06:50 1024 30.24 853 25.19 -0.3 31.4 56 -8.1 17.5
06:55 1024 30.24 853 25.19 0.3 32.6 52 -8.4 16.9
07:00 1024 30.24 853 25.19 0.9 33.6 49 -8.8 16.1
07:05 1024 30.24 853 25.19 1.3 34.3 48 -8.6 16.5
07:10 1024 30.24 853 25.19 1.4 34.6 48 -8.4 16.8
07:15 1024 30.24 853 25.19 1.1 34 50 -8.1 17.4
07:20 1024 30.24 853 25.19 0.5 32.9 53 -8 17.6
07:25 1024 30.24 853 25.19 -0.3 31.5 55 -8.2 17.3
07:30 1024 30.24 853 25.19 -0.3 31.4 54 -8.5 16.8
07:35 1024 30.24 853 25.19 -0.2 31.6 53 -8.6 16.6
07:40 1024 30.24 853 25.19 -0.1 31.7 54 -8.4 16.9
07:45 1024 30.24 853 25.19 0 32 52 -8.7 16.3
07:50 1024 30.24 853 25.19 0.6 33 50 -8.6 16.5
07:55 1024 30.24 853 25.19 1.3 34.3 48 -8.6 16.6
08:00 1024 30.24 853 25.19 1.2 34.1 49 -8.3 17.1
08:05 1023 30.21 853 25.19 0.9 33.6 50 -8.4 16.9
08:10 1023 30.21 853 25.19 0.5 32.8 52 -8.2 17.2
08:15 1023 30.21 852 25.16 -0 31.9 54 -8.4 16.9
08:20 1023 30.21 852 25.16 -0 31.9 52 -8.7 16.3
08:25 1023 30.21 852 25.16 1 33.8 48 -8.8 16.2
08:30 1023 30.21 852 25.16 1.3 34.4 49 -8.3 17
08:35 1023 30.21 852 25.16 1.4 34.5 49 -8.2 17.2
08:40 1023 30.21 852 25.16 1.2 34.1 49 -8.3 17.1
08:45 1023 30.21 852 25.16 1.2 34.2 51 -8 17.7
08:50 1023 30.21 852 25.16 0.7 33.2 52 -8.2 17.3
08:55 1023 30.21 852 25.16 0.4 32.8 52 -8.3 17
09:00 1023 30.21 852 25.16 0.9 33.6 51 -8.3 17.1
09:05 1023 30.21 852 25.16 1.4 34.5 50 -8 17.7
09:10 1023 30.21 852 25.16 1.6 34.9 49 -7.9 17.8
09:15 1023 30.21 852 25.16 1 33.8 53 -7.6 18.3
09:20 1023 30.21 852 25.16 0.3 32.6 55 -7.8 18
09:25 1023 30.21 852 25.16 0.4 32.7 53 -8.2 17.3
09:30 1023 30.21 852 25.16 0.7 33.3 52 -8.1 17.5
09:35 1023 30.21 852 25.16 0.8 33.5 51 -8.1 17.5
09:40 1023 30.21 852 25.16 1.2 34.1 51 -7.8 17.9
09:45 1023 30.21 852 25.16 1 33.7 52 -7.9 17.8
09:50 1023 30.21 852 25.16 0.8 33.4 51 -8.3 17.1
09:55 1023 30.21 852 25.16 0.8 33.4 52 -8.1 17.5
10:00 1023 30.21 852 25.16 0.7 33.3 52 -8 17.6
10:05 1023 30.21 852 25.16 0.8 33.4 52 -8.1 17.5
10:10 1023 30.21 852 25.16 0.9 33.5 51 -8.1 17.4
10:15 1022 30.18 852 25.16 0.9 33.6 52 -7.9 17.7
10:20 1022 30.18 852 25.16 1 33.9 52 -7.7 18.1
10:25 1022 30.18 852 25.16 1.4 34.5 49 -8.3 17
10:30 1022 30.18 852 25.16 2 35.7 47 -8.2 17.3
10:35 1022 30.18 851 25.13 2.1 35.8 48 -7.8 18
10:40 1022 30.18 851 25.13 2 35.6 48 -8 17.7
10:45 1022 30.18 851 25.13 2 35.7 47 -8 17.5
10:50 1022 30.18 851 25.13 2.3 36.2 47 -7.9 17.8
10:55 1022 30.18 851 25.13 2.8 37 46 -7.8 17.9
11:00 1022 30.18 851 25.13 3 37.5 46 -7.6 18.4
11:05 1022 30.18 851 25.13 2.7 36.9 47 -7.6 18.3
11:10 1022 30.18 851 25.13 2.8 37 47 -7.5 18.4
11:15 1022 30.18 851 25.13 3 37.5 45 -7.6 18.2
11:20 1022 30.18 851 25.13 3.3 37.9 43 -8.2 17.3
11:25 1022 30.18 851 25.13 3.5 38.3 43 -8 17.7
11:30 1022 30.18 851 25.13 3.6 38.5 43 -7.9 17.7
11:35 1022 30.18 851 25.13 4.3 39.8 40 -8 17.6
11:40 1022 30.18 851 25.13 5.2 41.4 38 -7.8 17.9
11:45 1022 30.18 851 25.13 5.3 41.6 38 -7.8 18
11:50 1022 30.18 851 25.13 4.9 40.8 41 -7.1 19.1
11:55 1022 30.18 851 25.13 5 40.9 39 -7.9 17.8
12:00 1021 30.15 851 25.13 5.1 41.2 39 -7.6 18.3
12:05 1021 30.15 851 25.13 5.4 41.7 37 -8.1 17.4
12:10 1021 30.15 851 25.13 6.1 43 37 -7.4 18.7
12:15 1021 30.15 850 25.1 6 42.7 38 -7.4 18.7
12:20 1021 30.15 850 25.1 6 42.7 37 -7.6 18.3
12:25 1021 30.15 850 25.1 6 42.8 39 -6.8 19.7
12:30 1021 30.15 850 25.1 6.1 42.9 37 -7.4 18.6
12:35 1021 30.15 850 25.1 6.1 43.1 38 -7.2 19
12:40 1021 30.15 850 25.1 6 42.7 38 -7.3 18.9
12:45 1020 30.12 850 25.1 5.7 42.3 39 -7 19.3
12:50 1020 30.12 849 25.07 5.6 42.1 40 -7 19.4
12:55 1020 30.12 849 25.07 5.6 42.1 39 -7.3 18.8
13:00 1020 30.12 849 25.07 5.7 42.3 38 -7.4 18.6
13:05 1020 30.12 849 25.07 5.8 42.5 39 -7.2 19
13:10 1020 30.12 849 25.07 5.6 42.1 40 -6.9 19.7
13:15 1020 30.12 849 25.07 5.7 42.3 40 -6.7 19.9
13:20 1020 30.12 849 25.07 5.8 42.4 39 -7 19.3
13:25 1019 30.09 849 25.07 5.8 42.4 38 -7.6 18.3
13:30 1019 30.09 849 25.07 6.2 43.2 38 -7.1 19.2
13:35 1019 30.09 849 25.07 6.9 44.4 35 -7.5 18.5
13:40 1019 30.09 848 25.04 7.3 45.2 34 -7.6 18.4
13:45 1019 30.09 848 25.04 7.6 45.6 34 -7.4 18.6
13:50 1019 30.09 848 25.04 7.5 45.5 34 -7.2 19
13:55 1019 30.09 848 25.04 7 44.6 36 -6.9 19.5
14:00 1019 30.09 848 25.04 7.2 44.9 34 -7.7 18.2
14:05 1019 30.09 848 25.04 7.4 45.3 33 -7.7 18.1
14:10 1019 30.09 848 25.04 7.5 45.4 33 -7.7 18.2
14:15 1018 30.06 848 25.04 7.5 45.4 34 -7.3 18.9
14:20 1018 30.06 847 25.01 7.6 45.6 35 -7.1 19.3
14:25 1018 30.06 847 25.01 7.9 46.2 33 -7.5 18.5
14:30 1018 30.06 847 25.01 7.9 46.2 33 -7.3 18.9
14:35 1018 30.06 847 25.01 7.8 46.1 34 -7.1 19.1
14:40 1018 30.06 847 25.01 8.2 46.8 34 -6.9 19.6
14:45 1018 30.06 847 25.01 7.5 45.6 35 -6.9 19.6
14:50 1018 30.06 847 25.01 7.3 45.1 36 -6.9 19.5
14:55 1018 30.06 847 25.01 7 44.5 36 -7.3 18.9
15:00 1018 30.06 847 25.01 7.1 44.8 36 -7.2 19.1
15:05 1018 30.06 847 25.01 7.7 45.9 34 -7.3 18.8
15:10 1018 30.06 847 25.01 8.5 47.2 34 -6.7 20
15:15 1018 30.06 847 25.01 8.9 47.9 33 -6.5 20.3
15:20 1018 30.06 847 25.01 8.6 47.4 33 -6.9 19.7
15:25 1018 30.06 847 25.01 9.5 49 31 -7 19.4
15:30 1018 30.06 847 25.01 9.7 49.5 31 -6.5 20.4
15:35 1018 30.06 847 25.01 9.8 49.6 31 -6.5 20.3
15:40 1018 30.06 847 25.01 9.6 49.2 31 -6.6 20.1
15:45 1018 30.06 847 25.01 9.1 48.5 31 -7 19.5
15:50 1018 30.06 847 25.01 9 48.3 30 -7.4 18.6
15:55 1018 30.06 847 25.01 8.9 48.1 30 -7.9 17.9
16:00 1017 30.03 847 25.01 8.8 47.8 30 -7.7 18.1
16:05 1017 30.03 847 25.01 8.8 47.8 31 -7.5 18.5
16:10 1017 30.03 847 25.01 8.8 47.8 30 -7.7 18.2
16:15 1017 30.03 847 25.01 9.1 48.5 29 -7.8 17.9
16:20 1017 30.03 846 24.98 10.3 50.6 27 -8 17.6
16:25 1017 30.03 846 24.98 11 51.8 26 -7.6 18.3
16:30 1017 30.03 846 24.98 11.4 52.6 26 -7.5 18.6
16:35 1017 30.03 846 24.98 11.8 53.2 26 -7.2 19
16:40 1017 30.03 846 24.98 11.7 53.1 26 -7.2 19.1
16:45 1017 30.03 846 24.98 11.7 53 26 -7.1 19.1
16:50 1017 30.03 846 24.98 11.2 52.2 30 -5.6 21.9
16:55 1017 30.03 846 24.98 10.4 50.7 28 -7.3 18.8
17:00 1017 30.03 846 24.98 11.5 52.7 26 -7.4 18.6
17:05 1017 30.03 846 24.98 11.8 53.3 26 -7 19.3
17:10 1017 30.03 846 24.98 11.8 53.2 25 -7.6 18.3
17:15 1017 30.03 846 24.98 12.3 54.1 23 -8 17.5
17:20 1017 30.03 846 24.98 12.5 54.4 23 -8 17.6
17:25 1017 30.03 846 24.98 12.5 54.5 22 -8.4 16.9
17:30 1017 30.03 846 24.98 12.5 54.5 22 -8.4 16.9
17:35 1017 30.03 846 24.98 12.4 54.3 24 -7.5 18.4
17:40 1017 30.03 846 24.98 12.1 53.7 24 -8 17.5
17:45 1017 30.03 846 24.98 12.1 53.7 24 -7.7 18.1
17:50 1017 30.03 846 24.98 11.8 53.3 25 -7.7 18.2
17:55 1017 30.03 846 24.98 11.8 53.2 24 -8.1 17.4
18:00 1017 30.03 846 24.98 11.8 53.2 24 -8.3 17.1
18:05 1017 30.03 846 24.98 12 53.5 23 -8.7 16.4
18:10 1017 30.03 846 24.98 12 53.7 23 -8.4 16.9
18:15 1017 30.03 846 24.98 11.8 53.3 24 -8.3 17.1
18:20 1016 30 846 24.98 12 53.5 23 -8.8 16.2
18:25 1017 30.03 846 24.98 12 53.6 24 -8.1 17.4
18:30 1016 30 846 24.98 11.8 53.2 24 -8.4 16.9
18:35 1016 30 846 24.98 11.6 52.8 24 -8.2 17.3
18:40 1016 30 846 24.98 11.1 51.9 27 -7.2 19
18:45 1016 30 846 24.98 9.6 49.4 29 -7.5 18.6
18:50 1016 30 846 24.98 8.8 47.8 31 -7.5 18.6
18:55 1016 30 846 24.98 8.6 47.6 29 -8.4 16.9
19:00 1016 30 845 24.95 9.7 49.4 29 -7.5 18.5
19:05 1016 30 845 24.95 9.4 48.9 30 -7.5 18.5
19:10 1016 30 845 24.95 9 48.2 28 -8.3 17
19:15 1016 30 845 24.95 9.1 48.4 32 -6.8 19.8
19:20 1016 30 845 24.95 8.2 46.8 33 -7.2 19.1
19:25 1016 30 845 24.95 8.1 46.6 33 -7 19.3
19:30 1016 30 845 24.95 8.5 47.3 27 -9.5 14.9
19:35 1016 30 845 24.95 9.7 49.5 29 -7.4 18.6
19:40 1016 30 845 24.95 9.1 48.3 33 -6.5 20.3
19:45 1016 30 845 24.95 8 46.4 35 -6.5 20.2
19:50 1016 30 845 24.95 7.4 45.4 35 -7.1 19.2
19:55 1016 30 845 24.95 7.1 44.8 38 -6.3 20.7
20:00 1016 30 845 24.95 6.9 44.5 38 -6.5 20.4
20:05 1016 30 845 24.95 6.1 43 40 -6.5 20.3
20:10 1016 30 845 24.95 6.2 43.2 37 -7.3 18.8
20:15 1016 30 845 24.95 6.6 43.9 36 -7.5 18.5
20:20 1016 30 845 24.95 6.9 44.5 36 -7.2 19.1
20:25 1016 30 845 24.95 6.9 44.3 35 -7.5 18.6
20:30 1016 30 845 24.95 7 44.6 36 -7.1 19.3
20:35 1016 30 845 24.95 6.9 44.5 35 -7.6 18.3
20:40 1016 30 845 24.95 7.1 44.8 33 -7.9 17.7
20:45 1016 30 845 24.95 7.8 46 33 -7.7 18.2
20:50 1016 30 845 24.95 7.7 45.8 32 -7.9 17.8
20:55 1016 30 845 24.95 7.8 46 33 -7.5 18.4
21:00 1015 29.97 845 24.95 7.5 45.4 32 -8.3 17
21:05 1015 29.97 845 24.95 7.2 45 37 -6.6 20.1
21:10 1015 29.97 845 24.95 6 42.8 40 -6.5 20.3
21:15 1015 29.97 845 24.95 5.1 41.1 42 -6.9 19.5
21:20 1015 29.97 845 24.95 5.5 42 38 -7.8 18
21:25 1015 29.97 845 24.95 5.8 42.4 40 -6.9 19.6
21:30 1015 29.97 845 24.95 5.4 41.7 40 -7.3 18.9
21:35 1015 29.97 844 24.92 5.6 42.1 39 -7.2 19
21:40 1015 29.97 845 24.95 5.7 42.2 41 -6.7 20
21:45 1015 29.97 845 24.95 5.3 41.5 40 -7.4 18.7
21:50 1015 29.97 844 24.92 5.8 42.5 38 -7.3 18.8
21:55 1015 29.97 844 24.92 5.9 42.6 39 -7.1 19.3
22:00 1015 29.97 844 24.92 5.7 42.3 38 -7.6 18.3
22:05 1015 29.97 844 24.92 5.9 42.6 38 -7.3 18.9
22:10 1015 29.97 844 24.92 5.6 42.1 39 -7.4 18.7
22:15 1015 29.97 844 24.92 5.6 42 38 -7.7 18.1
22:20 1015 29.97 844 24.92 5.8 42.4 39 -7.2 19
22:25 1015 29.97 844 24.92 5.6 42.1 38 -7.6 18.4
22:30 1015 29.97 844 24.92 5.6 42.1 38 -7.7 18.1
22:35 1015 29.97 844 24.92 5.8 42.4 36 -8.2 17.2
22:40 1015 29.97 844 24.92 5.7 42.3 37 -7.8 18
22:45 1015 29.97 844 24.92 5.6 42 38 -7.7 18.1
22:50 1015 29.97 844 24.92 5.8 42.4 38 -7.6 18.4
22:55 1015 29.97 844 24.92 5.4 41.8 38 -7.7 18.2
23:00 1015 29.97 844 24.92 5.3 41.6 39 -7.4 18.7
23:05 1015 29.97 844 24.92 4.8 40.6 41 -7.2 19
23:10 1015 29.97 844 24.92 4.6 40.2 41 -7.5 18.4
23:15 1015 29.97 844 24.92 4.8 40.6 40 -7.7 18.1
23:20 1015 29.97 844 24.92 4.9 40.8 40 -7.7 18.1
23:25 1015 29.97 844 24.92 4.9 40.8 41 -7.1 19.1
23:30 1015 29.97 844 24.92 4.1 39.5 45 -6.8 19.8
23:35 1015 29.97 844 24.92 3.9 39.1 42 -7.9 17.8
23:40 1015 29.97 844 24.92 4.6 40.4 40 -7.8 17.9
23:45 1015 29.97 844 24.92 5 41.1 42 -7 19.4
23:50 1014 29.94 844 24.92 4.3 39.7 45 -6.6 20.1
23:55 1014 29.94 844 24.92 4.1 39.3 42 -7.6 18.3
24:00 1014 29.94 844 24.92 4.4 39.9 42 -7.4 18.7